Sam Holmes — WDH8629 — position and weather

sailwx.info

Track history (hours):
 
Tides and Currents Weather Stations Pressure Air Temp Water Temp Dewpoint Dewpoint Depression Visibility Wind Speed Wind Dir Waves Ship Positions

Sam Holmes

Owner: NYCL Acquisition LLC, Brooklyn, NY. More information available from US FCC via Universal Licensing System and Coast Guard Vessel Documentation Center.

Last reported at 2017-Dec-11 17:01 UTC. Time now 2017-Dec-11 21:18 UTC.
Position N 40°41' W 074°02'.

Type: Passenger vessel. MMSI: 367659970.

Date/timePositionNaut miles runAvg speedWind from/ knotsBaromVisibWave heightAir tempDewpointWater temp
2017-Dec-11 17:01N 40°41' W 074°02'1 2.8
2017-Dec-11 16:31N 40°42' W 074°01'2 3.1
2017-Dec-11 16:00N 40°44' W 074°01'2 3.4
2017-Dec-11 15:30N 40°42' W 074°00'3 6.1
2017-Dec-11 15:01N 40°45' W 074°01'5 9.8
2017-Dec-11 14:30N 40°40' W 074°01'  
2017-Dec-09 00:12N 40°40' W 074°01'0 0.0
2017-Dec-09 00:00N 40°40' W 074°01'2 4.1
2017-Dec-08 23:30N 40°42' W 073°60'3 5.5
2017-Dec-08 23:00N 40°45' W 073°58'2 4.1
2017-Dec-08 22:30N 40°43' W 073°58'1 1.7
2017-Dec-08 22:00N 40°42' W 073°59'1 1.9
2017-Dec-08 21:30N 40°43' W 073°58'3 6.6
2017-Dec-08 21:01N 40°40' W 074°01'0 0.0
2017-Dec-08 20:31N 40°40' W 074°01'0 0.0
2017-Dec-08 20:00N 40°40' W 074°01'0 0.0
2017-Dec-08 19:30N 40°40' W 074°01'0 0.0
2017-Dec-08 19:00N 40°40' W 074°01'0 0.0
2017-Dec-08 18:31N 40°40' W 074°01'0 0.0
2017-Dec-08 18:00N 40°40' W 074°01'0 0.0
2017-Dec-08 17:31N 40°40' W 074°01'0 0.0
2017-Dec-08 17:00N 40°40' W 074°01'0 0.0
2017-Dec-08 16:31N 40°40' W 074°01'0 0.0
2017-Dec-08 16:00N 40°40' W 074°01'0 0.0
2017-Dec-08 15:30N 40°40' W 074°01'3 5.2
2017-Dec-08 15:01N 40°42' W 073°59'1 1.7
2017-Dec-08 14:30N 40°43' W 073°58'1 2.9
2017-Dec-08 14:00N 40°42' W 073°60'3 5.5
2017-Dec-08 13:30N 40°45' W 073°58'2 4.1
2017-Dec-08 13:00N 40°43' W 073°58'3 5.6
2017-Dec-08 12:30N 40°41' W 074°01'1 0.0
2017-Dec-07 21:47N 40°40' W 074°01'2 7.3
2017-Dec-07 21:31N 40°42' W 074°00'2 3.4
2017-Dec-07 21:00N 40°42' W 074°02'2 3.4
2017-Dec-07 20:31N 40°42' W 074°00'1 1.3
2017-Dec-07 19:30N 40°42' W 074°02'1 2.5
2017-Dec-07 19:00N 40°42' W 074°00'0 0.0
2017-Dec-07 18:30N 40°42' W 074°00'1 2.4
2017-Dec-07 18:00N 40°43' W 074°02'1 2.4
2017-Dec-07 17:30N 40°42' W 074°00'0 0.0
2017-Dec-07 17:00N 40°42' W 074°00'1 2.5
2017-Dec-07 16:30N 40°42' W 074°02'1 2.5
2017-Dec-07 16:00N 40°42' W 074°00'2 4.1
2017-Dec-07 15:30N 40°40' W 074°01'3 5.7
2017-Dec-07 15:00N 40°43' W 073°59'0 1.0
2017-Dec-07 14:30N 40°43' W 073°58'1 2.7
2017-Dec-07 14:00N 40°42' W 073°60'3 5.5
2017-Dec-07 13:30N 40°45' W 073°58'2 4.1
2017-Dec-07 13:00N 40°43' W 073°58'2 3.4
2017-Dec-07 12:31N 40°42' W 074°00'2 3.2
2017-Dec-07 12:00N 40°40' W 074°01'0 0.0
2017-Dec-07 00:15N 40°40' W 074°01'0 0.0
2017-Dec-07 00:00N 40°40' W 074°01'2 4.2
2017-Dec-06 23:30N 40°42' W 073°60'3 5.4
2017-Dec-06 23:00N 40°45' W 073°58'2 4.4
2017-Dec-06 22:30N 40°43' W 073°58'1 2.3
2017-Dec-06 22:00N 40°42' W 073°60'2 4.9
2017-Dec-06 21:30N 40°44' W 073°58'5 9.3
2017-Dec-06 21:00N 40°40' W 074°01'  
2017-Dec-04 02:34N 40°40' W 074°01'0 1.0
2017-Dec-04 02:31N 40°40' W 074°01'0 0.4
2017-Dec-04 02:00N 40°40' W 074°01'1 1.7
2017-Dec-04 01:30N 40°41' W 074°01'1 1.7
2017-Dec-04 01:00N 40°40' W 074°01'0 0.3
2017-Dec-04 00:30N 40°40' W 074°01'2 3.7
2017-Dec-04 00:00N 40°42' W 074°00'2 4.0
2017-Dec-03 23:31N 40°40' W 074°01'1 2.0
2017-Dec-03 23:01N 40°41' W 074°01'1 1.5
2017-Dec-03 22:30N 40°41' W 074°01'0 0.6
2017-Dec-03 22:00N 40°40' W 074°01'2 3.9
2017-Dec-03 21:30N 40°42' W 074°00'2 4.0
2017-Dec-03 21:00N 40°40' W 074°01'1 1.5
2017-Dec-03 20:31N 40°41' W 074°01'0 0.1
2017-Dec-03 20:00N 40°41' W 074°01'1 1.3
2017-Dec-03 19:30N 40°40' W 074°01'2 3.8
2017-Dec-03 19:00N 40°42' W 074°00'2 0.0
2017-Dec-02 00:06N 40°40' W 074°01'112.6
2017-Dec-02 00:00N 40°41' W 074°01'0 1.0
2017-Dec-01 23:30N 40°42' W 074°01'2 4.4
2017-Dec-01 23:01N 40°44' W 074°01'2 3.7
2017-Dec-01 22:30N 40°42' W 074°00'3 6.7
2017-Dec-01 22:00N 40°46' W 074°00'3 6.9
2017-Dec-01 21:30N 40°42' W 073°60'3 6.2
2017-Dec-01 21:00N 40°45' W 074°01'4 7.6
2017-Dec-01 20:30N 40°42' W 074°02'1 1.7
2017-Dec-01 20:00N 40°42' W 074°01'1 1.3
2017-Dec-01 19:30N 40°43' W 074°02'1 2.5
2017-Dec-01 19:00N 40°42' W 074°00'3 6.6
2017-Dec-01 18:30N 40°46' W 074°00'3 6.8
2017-Dec-01 18:00N 40°42' W 073°60'2 3.4
2017-Dec-01 17:30N 40°43' W 074°01'  
Track history (hours):
 
Tides and Currents Weather Stations Pressure Air Temp Water Temp Dewpoint Dewpoint Depression Visibility Wind Speed Wind Dir Waves Ship Positions

Sam Holmes

Owner: NYCL Acquisition LLC, Brooklyn, NY. More information available from US FCC via Universal Licensing System and Coast Guard Vessel Documentation Center.

Last reported at 2017-Dec-11 17:01 UTC. Time now 2017-Dec-11 21:18 UTC.
Position N 40°41' W 074°02'.

Type: Passenger vessel. MMSI: 367659970.

Date/timePositionNaut miles runAvg speedWind from/ knotsBaromVisibWave heightAir tempDewpointWater temp
2017-Dec-11 17:01N 40°41' W 074°02'1 2.8
2017-Dec-11 16:31N 40°42' W 074°01'2 3.1
2017-Dec-11 16:00N 40°44' W 074°01'2 3.4
2017-Dec-11 15:30N 40°42' W 074°00'3 6.1
2017-Dec-11 15:01N 40°45' W 074°01'5 9.8
2017-Dec-11 14:30N 40°40' W 074°01'  
2017-Dec-09 00:12N 40°40' W 074°01'0 0.0
2017-Dec-09 00:00N 40°40' W 074°01'2 4.1
2017-Dec-08 23:30N 40°42' W 073°60'3 5.5
2017-Dec-08 23:00N 40°45' W 073°58'2 4.1
2017-Dec-08 22:30N 40°43' W 073°58'1 1.7
2017-Dec-08 22:00N 40°42' W 073°59'1 1.9
2017-Dec-08 21:30N 40°43' W 073°58'3 6.6
2017-Dec-08 21:01N 40°40' W 074°01'0 0.0
2017-Dec-08 20:31N 40°40' W 074°01'0 0.0
2017-Dec-08 20:00N 40°40' W 074°01'0 0.0
2017-Dec-08 19:30N 40°40' W 074°01'0 0.0
2017-Dec-08 19:00N 40°40' W 074°01'0 0.0
2017-Dec-08 18:31N 40°40' W 074°01'0 0.0
2017-Dec-08 18:00N 40°40' W 074°01'0 0.0
2017-Dec-08 17:31N 40°40' W 074°01'0 0.0
2017-Dec-08 17:00N 40°40' W 074°01'0 0.0
2017-Dec-08 16:31N 40°40' W 074°01'0 0.0
2017-Dec-08 16:00N 40°40' W 074°01'0 0.0
2017-Dec-08 15:30N 40°40' W 074°01'3 5.2
2017-Dec-08 15:01N 40°42' W 073°59'1 1.7
2017-Dec-08 14:30N 40°43' W 073°58'1 2.9
2017-Dec-08 14:00N 40°42' W 073°60'3 5.5
2017-Dec-08 13:30N 40°45' W 073°58'2 4.1
2017-Dec-08 13:00N 40°43' W 073°58'3 5.6
2017-Dec-08 12:30N 40°41' W 074°01'1 0.0
2017-Dec-07 21:47N 40°40' W 074°01'2 7.3
2017-Dec-07 21:31N 40°42' W 074°00'2 3.4
2017-Dec-07 21:00N 40°42' W 074°02'2 3.4
2017-Dec-07 20:31N 40°42' W 074°00'1 1.3
2017-Dec-07 19:30N 40°42' W 074°02'1 2.5
2017-Dec-07 19:00N 40°42' W 074°00'0 0.0
2017-Dec-07 18:30N 40°42' W 074°00'1 2.4
2017-Dec-07 18:00N 40°43' W 074°02'1 2.4
2017-Dec-07 17:30N 40°42' W 074°00'0 0.0
2017-Dec-07 17:00N 40°42' W 074°00'1 2.5
2017-Dec-07 16:30N 40°42' W 074°02'1 2.5
2017-Dec-07 16:00N 40°42' W 074°00'2 4.1
2017-Dec-07 15:30N 40°40' W 074°01'3 5.7
2017-Dec-07 15:00N 40°43' W 073°59'0 1.0
2017-Dec-07 14:30N 40°43' W 073°58'1 2.7
2017-Dec-07 14:00N 40°42' W 073°60'3 5.5
2017-Dec-07 13:30N 40°45' W 073°58'2 4.1
2017-Dec-07 13:00N 40°43' W 073°58'2 3.4
2017-Dec-07 12:31N 40°42' W 074°00'2 3.2
2017-Dec-07 12:00N 40°40' W 074°01'0 0.0
2017-Dec-07 00:15N 40°40' W 074°01'0 0.0
2017-Dec-07 00:00N 40°40' W 074°01'2 4.2
2017-Dec-06 23:30N 40°42' W 073°60'3 5.4
2017-Dec-06 23:00N 40°45' W 073°58'2 4.4
2017-Dec-06 22:30N 40°43' W 073°58'1 2.3
2017-Dec-06 22:00N 40°42' W 073°60'2 4.9
2017-Dec-06 21:30N 40°44' W 073°58'5 9.3
2017-Dec-06 21:00N 40°40' W 074°01'  
2017-Dec-04 02:34N 40°40' W 074°01'0 1.0
2017-Dec-04 02:31N 40°40' W 074°01'0 0.4
2017-Dec-04 02:00N 40°40' W 074°01'1 1.7
2017-Dec-04 01:30N 40°41' W 074°01'1 1.7
2017-Dec-04 01:00N 40°40' W 074°01'0 0.3
2017-Dec-04 00:30N 40°40' W 074°01'2 3.7
2017-Dec-04 00:00N 40°42' W 074°00'2 4.0
2017-Dec-03 23:31N 40°40' W 074°01'1 2.0
2017-Dec-03 23:01N 40°41' W 074°01'1 1.5
2017-Dec-03 22:30N 40°41' W 074°01'0 0.6
2017-Dec-03 22:00N 40°40' W 074°01'2 3.9
2017-Dec-03 21:30N 40°42' W 074°00'2 4.0
2017-Dec-03 21:00N 40°40' W 074°01'1 1.5
2017-Dec-03 20:31N 40°41' W 074°01'0 0.1
2017-Dec-03 20:00N 40°41' W 074°01'1 1.3
2017-Dec-03 19:30N 40°40' W 074°01'2 3.8
2017-Dec-03 19:00N 40°42' W 074°00'2 0.0
2017-Dec-02 00:06N 40°40' W 074°01'112.6
2017-Dec-02 00:00N 40°41' W 074°01'0 1.0
2017-Dec-01 23:30N 40°42' W 074°01'2 4.4
2017-Dec-01 23:01N 40°44' W 074°01'2 3.7
2017-Dec-01 22:30N 40°42' W 074°00'3 6.7
2017-Dec-01 22:00N 40°46' W 074°00'3 6.9
2017-Dec-01 21:30N 40°42' W 073°60'3 6.2
2017-Dec-01 21:00N 40°45' W 074°01'4 7.6
2017-Dec-01 20:30N 40°42' W 074°02'1 1.7
2017-Dec-01 20:00N 40°42' W 074°01'1 1.3
2017-Dec-01 19:30N 40°43' W 074°02'1 2.5
2017-Dec-01 19:00N 40°42' W 074°00'3 6.6
2017-Dec-01 18:30N 40°46' W 074°00'3 6.8
2017-Dec-01 18:00N 40°42' W 073°60'2 3.4
2017-Dec-01 17:30N 40°43' W 074°01'  

Dump ship's entire track history